createdAt,value
2022-09-28T00:02:36.567Z,96859.94
2022-09-28T00:05:39.908Z,96850.09
2022-09-28T00:08:43.310Z,96847.69
2022-09-28T00:11:47.055Z,96856.72
2022-09-28T00:14:50.315Z,96846.88
2022-09-28T00:17:55.098Z,96855.94
2022-09-28T00:21:03.422Z,96862.25
2022-09-28T00:24:15.910Z,96853.53
2022-09-28T00:27:19.188Z,96846.06
2022-09-28T00:30:22.279Z,96846.88
2022-09-28T00:33:27.143Z,96845.28
2022-09-28T00:36:31.766Z,96838.16
2022-09-28T00:39:35.958Z,96835.41
2022-09-28T00:42:42.829Z,96838.16
2022-09-28T00:45:46.487Z,96831.53
2022-09-28T00:48:56.962Z,96825.22
2022-09-28T00:52:01.083Z,96827.97
2022-09-28T00:55:08.588Z,96825.59
2022-09-28T00:58:15.810Z,96824.41
2022-09-28T01:01:19.160Z,96829.16
2022-09-28T01:04:28.044Z,96832.66
2022-09-28T01:07:33.910Z,96822.84
2022-09-28T01:10:37.104Z,96828.34
2022-09-28T01:13:42.381Z,96825.59
2022-09-28T01:16:56.284Z,96826.75
2022-09-28T01:20:41.941Z,96824.78
2022-09-28T01:24:11.873Z,96833.03
2022-09-28T01:27:26.673Z,96835.00
2022-09-28T01:30:37.643Z,96826.75
2022-09-28T01:33:46.055Z,96838.91
2022-09-28T01:36:53.238Z,96842.44
2022-09-28T01:39:59.479Z,96846.00
2022-09-28T01:43:07.018Z,96842.44
2022-09-28T01:46:14.891Z,96834.19
2022-09-28T01:49:22.301Z,96835.34
2022-09-28T01:52:29.506Z,96832.59
2022-09-28T01:55:36.073Z,96833.41
2022-09-28T01:58:47.811Z,96832.59
2022-09-28T02:01:55.583Z,96829.03
2022-09-28T02:05:03.239Z,96829.03
2022-09-28T02:08:10.840Z,96825.13
2022-09-28T02:11:16.099Z,96837.28
2022-09-28T02:14:21.760Z,96840.03
2022-09-28T02:17:26.376Z,96848.28
2022-09-28T02:20:32.854Z,96845.53
2022-09-28T02:23:40.798Z,96836.50
2022-09-28T02:26:48.652Z,96841.19
2022-09-28T02:29:53.261Z,96850.25
2022-09-28T02:33:00.168Z,96841.19
2022-09-28T02:36:04.522Z,96842.34
2022-09-28T02:39:16.319Z,96848.63
2022-09-28T02:42:23.682Z,96849.44
2022-09-28T02:45:42.478Z,96852.19
2022-09-28T02:49:20.166Z,96851.38
2022-09-28T02:52:42.646Z,96851.38
2022-09-28T02:56:01.933Z,96849.44
2022-09-28T02:59:15.371Z,96852.19
2022-09-28T03:02:29.236Z,96852.53
2022-09-28T03:05:42.550Z,96850.59
2022-09-28T03:08:53.938Z,96850.59
2022-09-28T03:12:01.984Z,96854.47
2022-09-28T03:15:10.568Z,96851.75
2022-09-28T03:18:15.132Z,96845.09
2022-09-28T03:21:18.582Z,96839.94
2022-09-28T03:24:21.533Z,96854.47
2022-09-28T03:27:24.794Z,96858.03
2022-09-28T03:30:28.079Z,96858.84
2022-09-28T03:33:33.038Z,96858.38
2022-09-28T03:36:35.972Z,96853.69
2022-09-28T03:39:39.493Z,96852.88
2022-09-28T03:42:44.086Z,96864.69
2022-09-28T03:45:52.934Z,96858.38
2022-09-28T03:48:59.179Z,96855.63
2022-09-28T03:52:03.081Z,96865.84
2022-09-28T03:55:06.814Z,96866.63
2022-09-28T03:58:10.053Z,96871.00
2022-09-28T04:01:17.241Z,96867.44
2022-09-28T04:04:23.940Z,96865.84
2022-09-28T04:07:30.904Z,96858.38
2022-09-28T04:10:35.035Z,96855.44
2022-09-28T04:13:38.230Z,96869.38
2022-09-28T04:16:43.791Z,96865.03
2022-09-28T04:19:51.731Z,96860.34
2022-09-28T04:23:21.450Z,96862.28
2022-09-28T04:26:25.719Z,96859.53
2022-09-28T04:29:28.041Z,96856.78
2022-09-28T04:32:32.998Z,96863.88
2022-09-28T04:35:37.979Z,96854.84
2022-09-28T04:38:52.723Z,96858.38
2022-09-28T04:41:58.208Z,96867.78
2022-09-28T04:45:02.269Z,96863.88
2022-09-28T04:48:07.494Z,96865.38
2022-09-28T04:51:36.541Z,96864.22
2022-09-28T04:54:40.049Z,96866.97
2022-09-28T04:57:43.132Z,96873.28
2022-09-28T05:00:46.532Z,96873.28
2022-09-28T05:04:07.120Z,96869.38
2022-09-28T05:07:24.018Z,96874.88
2022-09-28T05:10:26.965Z,96871.34
2022-09-28T05:13:31.394Z,96866.97
2022-09-28T05:16:35.906Z,96874.88
2022-09-28T05:19:57.496Z,96873.28
2022-09-28T05:23:01.825Z,96875.69
2022-09-28T05:26:05.076Z,96873.75
2022-09-28T05:29:07.917Z,96869.50
2022-09-28T05:32:16.820Z,96864.81
2022-09-28T05:35:49.765Z,96864.81
2022-09-28T05:38:57.699Z,96870.28
2022-09-28T05:42:00.773Z,96858.94
2022-09-28T05:45:06.410Z,96870.41
2022-09-28T05:48:09.650Z,96872.78
2022-09-28T05:51:12.859Z,96871.28
2022-09-28T05:54:17.485Z,96866.59
2022-09-28T05:57:22.886Z,96875.66
2022-09-28T06:00:26.078Z,96876.09
2022-09-28T06:03:31.780Z,96882.31
2022-09-28T06:06:35.646Z,96871.56
2022-09-28T06:09:40.059Z,96880.69
2022-09-28T06:13:07.970Z,96884.03
2022-09-28T06:16:15.583Z,96876.25
2022-09-28T06:19:19.497Z,96875.91
2022-09-28T06:22:52.771Z,96875.63
2022-09-28T06:25:56.984Z,96878.81
2022-09-28T06:29:00.500Z,96881.34
2022-09-28T06:32:03.403Z,96875.63
2022-09-28T06:35:08.734Z,96883.28
2022-09-28T06:38:12.035Z,96880.59
2022-09-28T06:41:16.704Z,96882.22
2022-09-28T06:44:21.266Z,96881.75
2022-09-28T06:47:44.674Z,96885.41
2022-09-28T06:50:57.542Z,96883.00
2022-09-28T06:54:04.913Z,96879.91
2022-09-28T06:57:26.052Z,96878.31
2022-09-28T07:00:31.149Z,96881.84
2022-09-28T07:03:34.132Z,96868.09
2022-09-28T07:06:56.630Z,96870.03
2022-09-28T07:10:18.407Z,96872.81
2022-09-28T07:13:50.581Z,96875.19
2022-09-28T07:17:12.450Z,96879.09
2022-09-28T07:20:19.332Z,96887.03
2022-09-28T07:23:27.404Z,96880.59
2022-09-28T07:26:56.830Z,96889.66
2022-09-28T07:30:20.214Z,96891.63
2022-09-28T07:33:36.568Z,96892.34
2022-09-28T07:36:58.991Z,96888.78
2022-09-28T07:40:20.856Z,96884.44
2022-09-28T07:43:23.951Z,96885.69
2022-09-28T07:46:31.018Z,96873.44
2022-09-28T07:49:38.717Z,96873.06
2022-09-28T07:52:50.998Z,96862.47
2022-09-28T07:56:08.760Z,96866.78
2022-09-28T07:59:19.301Z,96859.31
2022-09-28T08:02:49.956Z,96858.50
2022-09-28T08:06:01.805Z,96858.31
2022-09-28T08:09:05.126Z,96855.03
2022-09-28T08:12:26.836Z,96863.63
2022-09-28T08:15:38.456Z,96864.59
2022-09-28T08:18:55.359Z,96875.63
2022-09-28T08:21:57.188Z,96876.41
2022-09-28T08:25:00.244Z,96883.88
2022-09-28T08:28:03.475Z,96891.44
2022-09-28T08:31:09.560Z,96889.94
2022-09-28T08:34:32.137Z,96882.47
2022-09-28T08:38:03.378Z,96881.34
2022-09-28T08:41:41.206Z,96883.34
2022-09-28T08:45:10.407Z,96888.16
2022-09-28T08:48:56.323Z,96883.13
2022-09-28T08:52:27.086Z,96882.22
2022-09-28T08:55:40.716Z,96876.69
2022-09-28T08:58:48.817Z,96872.81
2022-09-28T09:01:59.682Z,96872.81
2022-09-28T09:05:06.547Z,96872.81
2022-09-28T09:08:35.727Z,96872.81
2022-09-28T09:11:52.328Z,96865.69
2022-09-28T09:15:22.909Z,96865.25
2022-09-28T09:18:36.756Z,96874.22
2022-09-28T09:22:00.567Z,96867.28
2022-09-28T09:25:19.176Z,96865.69
2022-09-28T09:29:03.810Z,96864.88
2022-09-28T09:32:36.868Z,96868.00
2022-09-28T09:35:55.263Z,96863.69
2022-09-28T09:39:13.538Z,96859.09
2022-09-28T09:42:53.942Z,96863.38
2022-09-28T09:46:29.475Z,96861.78
2022-09-28T09:49:56.572Z,96862.47
2022-09-28T09:53:03.436Z,96861.53
2022-09-28T09:56:13.471Z,96865.91
2022-09-28T09:59:38.771Z,96864.00
2022-09-28T10:02:58.213Z,96865.97
2022-09-28T10:06:14.967Z,96870.78
2022-09-28T10:09:24.837Z,96860.09
2022-09-28T10:12:28.064Z,96863.41
2022-09-28T10:15:36.410Z,96867.22
2022-09-28T10:18:54.237Z,96862.97
2022-09-28T10:22:22.202Z,96864.56
2022-09-28T10:25:26.074Z,96853.09
2022-09-28T10:28:36.607Z,96848.75
2022-09-28T10:31:43.640Z,96850.44
2022-09-28T10:34:54.966Z,96850.63
2022-09-28T10:38:08.116Z,96847.06
2022-09-28T10:41:32.244Z,96846.53
2022-09-28T10:44:52.517Z,96834.25
2022-09-28T10:48:18.825Z,96828.03
2022-09-28T10:51:40.140Z,96823.94
2022-09-28T10:54:54.098Z,96822.78
2022-09-28T10:57:59.627Z,96813.84
2022-09-28T11:01:14.553Z,96818.88
2022-09-28T11:04:22.704Z,96803.97
2022-09-28T11:07:30.742Z,96815.78
2022-09-28T11:10:34.815Z,96810.28
2022-09-28T11:13:47.905Z,96805.13
2022-09-28T11:17:16.031Z,96820.03
2022-09-28T11:20:33.520Z,96819.34
2022-09-28T11:23:38.831Z,96825.53
2022-09-28T11:26:56.365Z,96816.13
2022-09-28T11:30:02.117Z,96825.19
2022-09-28T11:33:19.184Z,96820.03
2022-09-28T11:37:06.504Z,96820.50
2022-09-28T11:40:24.134Z,96820.50
2022-09-28T11:43:46.050Z,96823.25
2022-09-28T11:46:58.322Z,96797.31
2022-09-28T11:50:07.474Z,96788.59
2022-09-28T11:53:21.979Z,96782.28
2022-09-28T11:56:35.774Z,96776.78
2022-09-28T11:59:44.275Z,96783.81
2022-09-28T12:02:53.010Z,96776.78
2022-09-28T12:06:03.227Z,96774.38
2022-09-28T12:09:14.044Z,96767.38
2022-09-28T12:12:33.337Z,96757.50
2022-09-28T12:16:13.275Z,96757.88
2022-09-28T12:19:17.722Z,96761.81
2022-09-28T12:22:25.675Z,96770.06
2022-09-28T12:25:37.699Z,96762.22
2022-09-28T12:28:46.945Z,96761.41
2022-09-28T12:32:04.545Z,96756.31
2022-09-28T12:35:14.187Z,96763.38
2022-09-28T12:38:33.555Z,96763.75
2022-09-28T12:41:50.023Z,96761.81
2022-09-28T12:45:17.395Z,96749.25
2022-09-28T12:48:37.270Z,96743.75
2022-09-28T12:51:48.412Z,96748.47
2022-09-28T12:55:15.645Z,96751.66
2022-09-28T12:58:44.697Z,96738.25
2022-09-28T13:02:02.441Z,96739.84
2022-09-28T13:05:30.071Z,96738.19
2022-09-28T13:08:44.340Z,96740.13
2022-09-28T13:11:56.677Z,96741.28
2022-09-28T13:15:32.046Z,96734.97
2022-09-28T13:18:42.172Z,96735.69
2022-09-28T13:21:55.275Z,96735.34
2022-09-28T13:25:04.259Z,96730.97
2022-09-28T13:28:08.282Z,96731.31
2022-09-28T13:31:18.799Z,96730.19
2022-09-28T13:34:25.271Z,96738.09
2022-09-28T13:37:28.141Z,96729.38
2022-09-28T13:41:04.640Z,96726.97
2022-09-28T13:44:34.025Z,96715.16
2022-09-28T13:47:57.709Z,96730.88
2022-09-28T13:51:18.652Z,96725.38
2022-09-28T13:54:38.191Z,96731.69
2022-09-28T13:57:47.592Z,96718.28
2022-09-28T14:00:54.826Z,96719.88
2022-09-28T14:04:14.816Z,96709.66
2022-09-28T14:07:23.386Z,96718.28
2022-09-28T14:10:49.154Z,96709.56
2022-09-28T14:13:59.859Z,96703.63
2022-09-28T14:17:51.109Z,96695.38
2022-09-28T14:21:12.424Z,96694.94
2022-09-28T14:24:27.512Z,96691.38
2022-09-28T14:27:49.432Z,96687.84
2022-09-28T14:30:58.970Z,96677.19
2022-09-28T14:34:04.557Z,96675.22
2022-09-28T14:37:40.842Z,96669.72
2022-09-28T14:41:12.658Z,96665.38
2022-09-28T14:44:17.171Z,96659.03
2022-09-28T14:47:35.295Z,96670.03
2022-09-28T14:50:38.999Z,96658.88
2022-09-28T14:53:43.590Z,96672.34
2022-09-28T14:57:08.030Z,96670.56
2022-09-28T15:00:20.254Z,96667.13
2022-09-28T15:03:24.881Z,96657.97
2022-09-28T15:06:44.508Z,96675.53
2022-09-28T15:09:51.437Z,96687.34
2022-09-28T15:12:56.050Z,96688.94
2022-09-28T15:16:04.539Z,96703.50
2022-09-28T15:19:20.944Z,96699.94
2022-09-28T15:22:23.890Z,96705.38
2022-09-28T15:25:29.979Z,96701.38
2022-09-28T15:28:35.712Z,96703.91
2022-09-28T15:31:39.250Z,96701.16
2022-09-28T15:34:56.828Z,96698.75
2022-09-28T15:38:00.318Z,96716.78
2022-09-28T15:41:07.563Z,96718.34
2022-09-28T15:44:30.374Z,96724.59
2022-09-28T15:47:38.695Z,96737.09
2022-09-28T15:50:53.589Z,96723.56
2022-09-28T15:54:00.060Z,96711.31
2022-09-28T15:57:04.593Z,96699.97
2022-09-28T16:00:28.132Z,96698.31
2022-09-28T16:03:31.360Z,96729.59
2022-09-28T16:06:34.271Z,96715.03
2022-09-28T16:09:54.588Z,96728.78
2022-09-28T16:13:08.506Z,96726.28
2022-09-28T16:16:16.252Z,96743.47
2022-09-28T16:19:25.028Z,96745.06
2022-09-28T16:22:29.003Z,96738.19
2022-09-28T16:25:32.480Z,96740.59
2022-09-28T16:28:51.890Z,96740.16
2022-09-28T16:31:55.600Z,96743.25
2022-09-28T16:35:20.280Z,96751.03
2022-09-28T16:38:23.183Z,96741.97
2022-09-28T16:41:28.854Z,96753.34
2022-09-28T16:44:34.904Z,96749.81
2022-09-28T16:47:39.373Z,96741.56
2022-09-28T16:50:42.431Z,96760.69
2022-09-28T16:54:03.658Z,96765.03
2022-09-28T16:57:09.829Z,96754.91
2022-09-28T17:00:22.979Z,96764.88
2022-09-28T17:03:26.891Z,96780.06
2022-09-28T17:06:29.927Z,96773.69
2022-09-28T17:25:55.769Z,96756.75
2022-09-28T17:28:59.367Z,96741.06
2022-09-28T17:32:02.284Z,96738.75
2022-09-28T17:35:23.725Z,96766.38
2022-09-28T17:38:28.787Z,96789.25
2022-09-28T17:41:34.188Z,96798.44
2022-09-28T17:44:37.029Z,96805.19
2022-09-28T17:48:53.566Z,96806.06
2022-09-28T17:51:56.803Z,96795.56
2022-09-28T17:57:10.291Z,96805.16
2022-09-28T18:00:14.446Z,96802.56
2022-09-28T18:03:20.254Z,96799.72
2022-09-28T18:06:23.724Z,96798.91
2022-09-28T18:09:26.649Z,96798.56
2022-09-28T18:12:31.398Z,96811.50
2022-09-28T18:15:34.463Z,96812.31
2022-09-28T18:18:39.742Z,96809.56
2022-09-28T18:21:42.676Z,96806.81
2022-09-28T18:24:45.911Z,96804.88
2022-09-28T18:27:50.196Z,96811.16
2022-09-28T18:30:53.574Z,96816.66
2022-09-28T18:34:00.699Z,96813.56
2022-09-28T18:37:04.600Z,96808.06
2022-09-28T18:40:10.317Z,96804.19
2022-09-28T18:43:16.675Z,96810.47
2022-09-28T18:46:20.273Z,96815.19
2022-09-28T18:49:24.259Z,96826.97
2022-09-28T18:52:27.427Z,96825.84
2022-09-28T18:55:31.209Z,96826.63
2022-09-28T18:58:37.310Z,96831.34
2022-09-28T19:01:41.878Z,96835.69
2022-09-28T19:04:45.264Z,96830.19
2022-09-28T19:07:48.555Z,96825.50
2022-09-28T19:10:51.761Z,96834.53
2022-09-28T19:13:56.855Z,96834.53
2022-09-28T19:17:00.232Z,96838.09
2022-09-28T19:20:03.639Z,96840.50
2022-09-28T19:23:06.982Z,96828.69
2022-09-28T19:26:14.600Z,96831.78
2022-09-28T19:29:19.045Z,96829.50
2022-09-28T19:32:22.402Z,96825.94
2022-09-28T19:35:25.380Z,96825.59
2022-09-28T19:38:30.131Z,96821.25
2022-09-28T19:41:44.293Z,96828.34
2022-09-28T19:44:49.285Z,96836.47
2022-09-28T19:47:55.094Z,96844.72
2022-09-28T19:51:02.823Z,96839.56
2022-09-28T19:54:07.326Z,96850.22
2022-09-28T19:57:11.560Z,96854.56
2022-09-28T20:00:17.170Z,96851.03
2022-09-28T20:03:20.942Z,96865.59
2022-09-28T20:06:24.512Z,96861.69
2022-09-28T20:09:27.631Z,96868.34
2022-09-28T20:12:30.727Z,96866.03
2022-09-28T20:15:37.781Z,96878.19
2022-09-28T20:18:44.139Z,96885.31
2022-09-28T20:21:48.155Z,96897.91
2022-09-28T20:24:51.084Z,96882.16
2022-09-28T20:29:59.137Z,96871.28
2022-09-28T20:34:46.960Z,96872.00
2022-09-28T20:41:10.851Z,96879.59
2022-09-28T20:44:14.062Z,96884.13
2022-09-28T20:47:17.108Z,96891.81
2022-09-28T20:50:20.261Z,96890.19
2022-09-28T20:53:23.514Z,96896.84
2022-09-28T20:56:34.469Z,96897.47
2022-09-28T20:59:37.611Z,96903.19
2022-09-28T21:02:40.763Z,96882.69
2022-09-28T21:05:43.865Z,96890.47
2022-09-28T21:08:47.610Z,96906.16
2022-09-28T21:11:52.143Z,96914.44
2022-09-28T21:14:55.287Z,96916.38
2022-09-28T21:17:58.208Z,96917.97
2022-09-28T21:21:01.278Z,96906.16
2022-09-28T21:24:04.745Z,96913.63
2022-09-28T21:27:09.218Z,96934.47
2022-09-28T21:30:13.433Z,96916.38
2022-09-28T21:33:17.855Z,96918.34
2022-09-28T21:36:20.950Z,96943.09
2022-09-28T21:39:24.113Z,96946.19
2022-09-28T21:42:28.409Z,96952.84
2022-09-28T21:45:32.866Z,96952.84
2022-09-28T21:48:35.802Z,96952.03
2022-09-28T21:51:39.214Z,96956.84
2022-09-28T21:54:42.533Z,96956.47
2022-09-28T21:57:48.291Z,96962.78
2022-09-28T22:00:58.166Z,96967.84
2022-09-28T22:04:02.403Z,96974.94
2022-09-28T22:07:05.532Z,96967.47
2022-09-28T22:10:12.596Z,96958.19
2022-09-28T22:13:17.545Z,96962.91
2022-09-28T22:16:23.367Z,96959.69
2022-09-28T22:19:27.507Z,96959.69
2022-09-28T22:22:31.389Z,96963.59
2022-09-28T22:25:34.501Z,96962.78
2022-09-28T22:28:40.700Z,96969.88
2022-09-28T22:31:46.784Z,96983.19
2022-09-28T22:34:51.991Z,96989.59
2022-09-28T22:37:54.994Z,96991.81
2022-09-28T22:40:58.727Z,96990.06
2022-09-28T22:44:03.319Z,96986.88
2022-09-28T22:47:06.831Z,96995.47
2022-09-28T22:50:10.310Z,96999.59
2022-09-28T22:53:14.089Z,96988.59
2022-09-28T22:56:18.992Z,96995.91
2022-09-28T22:59:24.315Z,96993.16
2022-09-28T23:02:27.407Z,96992.38
2022-09-28T23:05:30.775Z,96990.41
2022-09-28T23:08:34.745Z,96975.88
2022-09-28T23:11:38.224Z,96982.28
2022-09-28T23:14:42.517Z,96982.63
2022-09-28T23:17:45.738Z,96986.72
2022-09-28T23:20:54.372Z,97001.66
2022-09-28T23:24:00.968Z,96993.81
2022-09-28T23:27:04.090Z,96992.69
2022-09-28T23:30:10.967Z,97003.22
2022-09-28T23:33:14.757Z,96996.03
2022-09-28T23:36:18.329Z,97001.53
2022-09-28T23:39:21.392Z,96996.25
2022-09-28T23:42:24.735Z,96993.38
2022-09-28T23:45:29.004Z,97002.00
2022-09-28T23:48:32.733Z,97009.44
2022-09-28T23:51:35.775Z,97018.84
2022-09-28T23:54:39.709Z,97025.50
2022-09-28T23:57:44.145Z,97042.66
